sensor_id;sensor_type;location;lat;lon;timestamp;temperature;humidity
80274;DHT22;69576;51.902;-8.462;2023-08-06T00:01:07;16.80;66.00
80274;DHT22;69576;51.902;-8.462;2023-08-06T00:03:33;16.80;66.00
80274;DHT22;69576;51.902;-8.462;2023-08-06T00:05:58;16.80;66.00
80274;DHT22;69576;51.902;-8.462;2023-08-06T00:08:24;16.70;66.10
80274;DHT22;69576;51.902;-8.462;2023-08-06T00:10:50;16.70;65.90
80274;DHT22;69576;51.902;-8.462;2023-08-06T00:13:16;16.70;66.00
80274;DHT22;69576;51.902;-8.462;2023-08-06T00:15:44;16.70;66.10
80274;DHT22;69576;51.902;-8.462;2023-08-06T00:18:10;16.70;66.00
80274;DHT22;69576;51.902;-8.462;2023-08-06T00:20:40;16.70;66.10
80274;DHT22;69576;51.902;-8.462;2023-08-06T00:23:08;16.70;66.40
80274;DHT22;69576;51.902;-8.462;2023-08-06T00:25:34;16.70;66.10
80274;DHT22;69576;51.902;-8.462;2023-08-06T00:28:00;16.70;66.10
80274;DHT22;69576;51.902;-8.462;2023-08-06T00:30:28;16.70;66.10
80274;DHT22;69576;51.902;-8.462;2023-08-06T00:32:54;16.70;66.10
80274;DHT22;69576;51.902;-8.462;2023-08-06T00:35:20;16.70;66.30
80274;DHT22;69576;51.902;-8.462;2023-08-06T00:37:48;16.70;66.30
80274;DHT22;69576;51.902;-8.462;2023-08-06T00:40:13;16.70;66.20
80274;DHT22;69576;51.902;-8.462;2023-08-06T00:42:41;16.70;66.20
80274;DHT22;69576;51.902;-8.462;2023-08-06T00:45:10;16.70;66.20
80274;DHT22;69576;51.902;-8.462;2023-08-06T00:47:36;16.70;66.20
80274;DHT22;69576;51.902;-8.462;2023-08-06T00:50:06;16.70;66.20
80274;DHT22;69576;51.902;-8.462;2023-08-06T00:52:32;16.70;66.10
80274;DHT22;69576;51.902;-8.462;2023-08-06T00:54:58;16.70;66.20
80274;DHT22;69576;51.902;-8.462;2023-08-06T00:57:24;16.70;66.40
80274;DHT22;69576;51.902;-8.462;2023-08-06T00:59:52;16.70;66.40
80274;DHT22;69576;51.902;-8.462;2023-08-06T01:02:19;16.70;66.20
80274;DHT22;69576;51.902;-8.462;2023-08-06T01:04:47;16.70;66.40
80274;DHT22;69576;51.902;-8.462;2023-08-06T01:12:51;16.70;66.10
80274;DHT22;69576;51.902;-8.462;2023-08-06T01:15:29;16.70;66.20
80274;DHT22;69576;51.902;-8.462;2023-08-06T01:17:55;16.70;66.30
80274;DHT22;69576;51.902;-8.462;2023-08-06T01:20:21;16.70;66.40
80274;DHT22;69576;51.902;-8.462;2023-08-06T01:22:46;16.70;66.40
80274;DHT22;69576;51.902;-8.462;2023-08-06T01:25:15;16.70;66.50
80274;DHT22;69576;51.902;-8.462;2023-08-06T01:27:48;16.70;66.40
80274;DHT22;69576;51.902;-8.462;2023-08-06T01:30:29;16.70;66.50
80274;DHT22;69576;51.902;-8.462;2023-08-06T01:33:00;16.70;66.50
80274;DHT22;69576;51.902;-8.462;2023-08-06T01:35:27;16.70;66.70
80274;DHT22;69576;51.902;-8.462;2023-08-06T01:37:56;16.70;66.50
80274;DHT22;69576;51.902;-8.462;2023-08-06T01:40:22;16.70;66.40
80274;DHT22;69576;51.902;-8.462;2023-08-06T01:42:48;16.70;66.40
80274;DHT22;69576;51.902;-8.462;2023-08-06T01:45:14;16.70;66.30
80274;DHT22;69576;51.902;-8.462;2023-08-06T01:47:42;16.70;66.50
80274;DHT22;69576;51.902;-8.462;2023-08-06T01:50:08;16.70;66.50
80274;DHT22;69576;51.902;-8.462;2023-08-06T01:52:34;16.70;66.60
80274;DHT22;69576;51.902;-8.462;2023-08-06T01:54:59;16.70;66.60
80274;DHT22;69576;51.902;-8.462;2023-08-06T01:57:28;16.70;66.80
80274;DHT22;69576;51.902;-8.462;2023-08-06T01:59:53;16.70;66.70
80274;DHT22;69576;51.902;-8.462;2023-08-06T02:02:22;16.70;66.70
80274;DHT22;69576;51.902;-8.462;2023-08-06T02:04:47;16.70;66.70
80274;DHT22;69576;51.902;-8.462;2023-08-06T02:07:13;16.70;66.70
80274;DHT22;69576;51.902;-8.462;2023-08-06T02:09:39;16.70;66.80
80274;DHT22;69576;51.902;-8.462;2023-08-06T02:12:05;16.70;66.80
80274;DHT22;69576;51.902;-8.462;2023-08-06T02:14:34;16.80;66.90
80274;DHT22;69576;51.902;-8.462;2023-08-06T02:16:59;16.80;66.80
80274;DHT22;69576;51.902;-8.462;2023-08-06T02:19:26;16.80;66.80
80274;DHT22;69576;51.902;-8.462;2023-08-06T02:21:53;16.80;66.80
80274;DHT22;69576;51.902;-8.462;2023-08-06T02:24:19;16.80;66.80
80274;DHT22;69576;51.902;-8.462;2023-08-06T02:26:45;16.80;66.80
80274;DHT22;69576;51.902;-8.462;2023-08-06T02:29:17;16.80;66.80
80274;DHT22;69576;51.902;-8.462;2023-08-06T02:31:45;16.80;66.80
80274;DHT22;69576;51.902;-8.462;2023-08-06T02:34:10;16.70;66.80
80274;DHT22;69576;51.902;-8.462;2023-08-06T02:36:36;16.80;66.80
80274;DHT22;69576;51.902;-8.462;2023-08-06T02:39:02;16.80;66.80
80274;DHT22;69576;51.902;-8.462;2023-08-06T02:41:28;16.80;66.80
80274;DHT22;69576;51.902;-8.462;2023-08-06T02:43:53;16.80;66.90
80274;DHT22;69576;51.902;-8.462;2023-08-06T02:46:19;16.80;66.90
80274;DHT22;69576;51.902;-8.462;2023-08-06T02:48:45;16.80;66.90
80274;DHT22;69576;51.902;-8.462;2023-08-06T02:51:13;16.80;67.00
80274;DHT22;69576;51.902;-8.462;2023-08-06T02:53:41;16.80;67.00
80274;DHT22;69576;51.902;-8.462;2023-08-06T02:56:07;16.80;67.00
80274;DHT22;69576;51.902;-8.462;2023-08-06T02:58:35;16.80;67.20
80274;DHT22;69576;51.902;-8.462;2023-08-06T03:03:31;16.80;67.10
80274;DHT22;69576;51.902;-8.462;2023-08-06T03:05:56;16.80;67.10
80274;DHT22;69576;51.902;-8.462;2023-08-06T03:08:22;16.80;67.00
80274;DHT22;69576;51.902;-8.462;2023-08-06T03:10:49;16.80;67.00
80274;DHT22;69576;51.902;-8.462;2023-08-06T03:13:15;16.80;67.20
80274;DHT22;69576;51.902;-8.462;2023-08-06T03:15:41;16.80;67.30
80274;DHT22;69576;51.902;-8.462;2023-08-06T03:18:07;16.80;67.20
80274;DHT22;69576;51.902;-8.462;2023-08-06T03:20:33;16.80;67.10
80274;DHT22;69576;51.902;-8.462;2023-08-06T03:22:59;16.70;67.00
80274;DHT22;69576;51.902;-8.462;2023-08-06T03:25:26;16.70;67.10
80274;DHT22;69576;51.902;-8.462;2023-08-06T03:27:52;16.70;67.20
80274;DHT22;69576;51.902;-8.462;2023-08-06T03:30:20;16.70;67.20
80274;DHT22;69576;51.902;-8.462;2023-08-06T03:32:48;16.70;67.30
80274;DHT22;69576;51.902;-8.462;2023-08-06T03:35:14;16.70;67.20
80274;DHT22;69576;51.902;-8.462;2023-08-06T03:37:40;16.60;67.20
80274;DHT22;69576;51.902;-8.462;2023-08-06T03:40:06;16.60;67.30
80274;DHT22;69576;51.902;-8.462;2023-08-06T03:42:34;16.60;67.20
80274;DHT22;69576;51.902;-8.462;2023-08-06T03:45:05;16.60;67.20
80274;DHT22;69576;51.902;-8.462;2023-08-06T03:47:31;16.60;67.30
80274;DHT22;69576;51.902;-8.462;2023-08-06T03:49:56;16.60;67.50
80274;DHT22;69576;51.902;-8.462;2023-08-06T03:52:24;16.60;67.20
80274;DHT22;69576;51.902;-8.462;2023-08-06T03:54:50;16.60;67.40
80274;DHT22;69576;51.902;-8.462;2023-08-06T03:57:17;16.60;67.30
80274;DHT22;69576;51.902;-8.462;2023-08-06T03:59:43;16.50;67.30
80274;DHT22;69576;51.902;-8.462;2023-08-06T04:02:08;16.50;67.20
80274;DHT22;69576;51.902;-8.462;2023-08-06T04:04:34;16.50;67.50
80274;DHT22;69576;51.902;-8.462;2023-08-06T04:07:00;16.50;67.50
80274;DHT22;69576;51.902;-8.462;2023-08-06T04:09:28;16.50;67.50
80274;DHT22;69576;51.902;-8.462;2023-08-06T04:11:54;16.50;67.50
80274;DHT22;69576;51.902;-8.462;2023-08-06T04:14:21;16.50;67.50
80274;DHT22;69576;51.902;-8.462;2023-08-06T04:16:49;16.50;67.60
80274;DHT22;69576;51.902;-8.462;2023-08-06T04:19:16;16.50;67.50
80274;DHT22;69576;51.902;-8.462;2023-08-06T04:21:42;16.50;67.50
80274;DHT22;69576;51.902;-8.462;2023-08-06T04:24:10;16.50;67.50
80274;DHT22;69576;51.902;-8.462;2023-08-06T04:26:38;16.50;67.30
80274;DHT22;69576;51.902;-8.462;2023-08-06T04:29:04;16.50;67.40
80274;DHT22;69576;51.902;-8.462;2023-08-06T04:31:30;16.50;67.40
80274;DHT22;69576;51.902;-8.462;2023-08-06T04:33:55;16.50;67.40
80274;DHT22;69576;51.902;-8.462;2023-08-06T04:36:21;16.50;67.40
80274;DHT22;69576;51.902;-8.462;2023-08-06T04:38:47;16.50;67.40
80274;DHT22;69576;51.902;-8.462;2023-08-06T04:41:13;16.50;67.60
80274;DHT22;69576;51.902;-8.462;2023-08-06T04:43:39;16.50;67.60
80274;DHT22;69576;51.902;-8.462;2023-08-06T04:46:05;16.50;67.60
80274;DHT22;69576;51.902;-8.462;2023-08-06T04:48:31;16.50;67.70
80274;DHT22;69576;51.902;-8.462;2023-08-06T04:50:59;16.50;67.50
80274;DHT22;69576;51.902;-8.462;2023-08-06T04:53:27;16.50;67.60
80274;DHT22;69576;51.902;-8.462;2023-08-06T04:55:53;16.50;67.60
80274;DHT22;69576;51.902;-8.462;2023-08-06T04:58:19;16.50;67.60
80274;DHT22;69576;51.902;-8.462;2023-08-06T05:00:44;16.50;67.60
80274;DHT22;69576;51.902;-8.462;2023-08-06T05:03:10;16.50;67.60
80274;DHT22;69576;51.902;-8.462;2023-08-06T05:05:36;16.50;67.50
80274;DHT22;69576;51.902;-8.462;2023-08-06T05:08:01;16.50;67.70
80274;DHT22;69576;51.902;-8.462;2023-08-06T05:10:27;16.50;67.60
80274;DHT22;69576;51.902;-8.462;2023-08-06T05:12:54;16.50;67.60
80274;DHT22;69576;51.902;-8.462;2023-08-06T05:15:22;16.50;67.60
80274;DHT22;69576;51.902;-8.462;2023-08-06T05:17:50;16.50;67.60
80274;DHT22;69576;51.902;-8.462;2023-08-06T05:20:16;16.50;67.60
80274;DHT22;69576;51.902;-8.462;2023-08-06T05:22:43;16.50;67.60
80274;DHT22;69576;51.902;-8.462;2023-08-06T05:25:11;16.50;67.60
80274;DHT22;69576;51.902;-8.462;2023-08-06T05:27:39;16.50;67.70
80274;DHT22;69576;51.902;-8.462;2023-08-06T05:30:06;16.50;67.70
80274;DHT22;69576;51.902;-8.462;2023-08-06T05:32:31;16.50;67.70
80274;DHT22;69576;51.902;-8.462;2023-08-06T05:34:57;16.50;67.70
80274;DHT22;69576;51.902;-8.462;2023-08-06T05:37:23;16.50;67.70
80274;DHT22;69576;51.902;-8.462;2023-08-06T05:39:49;16.50;67.70
80274;DHT22;69576;51.902;-8.462;2023-08-06T05:42:17;16.50;67.80
80274;DHT22;69576;51.902;-8.462;2023-08-06T05:44:43;16.50;67.80
80274;DHT22;69576;51.902;-8.462;2023-08-06T05:47:11;16.50;67.80
80274;DHT22;69576;51.902;-8.462;2023-08-06T05:49:37;16.50;67.80
80274;DHT22;69576;51.902;-8.462;2023-08-06T05:52:03;16.50;67.90
80274;DHT22;69576;51.902;-8.462;2023-08-06T05:54:31;16.60;68.00
80274;DHT22;69576;51.902;-8.462;2023-08-06T05:56:57;16.60;68.00
80274;DHT22;69576;51.902;-8.462;2023-08-06T05:59:23;16.60;67.80
80274;DHT22;69576;51.902;-8.462;2023-08-06T06:01:53;16.60;67.70
80274;DHT22;69576;51.902;-8.462;2023-08-06T06:04:19;16.60;67.80
80274;DHT22;69576;51.902;-8.462;2023-08-06T06:06:44;16.60;67.90
80274;DHT22;69576;51.902;-8.462;2023-08-06T06:09:10;16.60;67.80
80274;DHT22;69576;51.902;-8.462;2023-08-06T06:11:36;16.70;67.80
80274;DHT22;69576;51.902;-8.462;2023-08-06T06:14:02;16.70;67.80
80274;DHT22;69576;51.902;-8.462;2023-08-06T06:16:27;16.70;67.90
80274;DHT22;69576;51.902;-8.462;2023-08-06T06:18:53;16.70;67.90
80274;DHT22;69576;51.902;-8.462;2023-08-06T06:21:20;16.70;67.80
80274;DHT22;69576;51.902;-8.462;2023-08-06T06:23:45;16.70;67.80
80274;DHT22;69576;51.902;-8.462;2023-08-06T06:26:12;16.70;67.80
80274;DHT22;69576;51.902;-8.462;2023-08-06T06:28:38;16.70;67.60
80274;DHT22;69576;51.902;-8.462;2023-08-06T06:31:08;16.70;67.70
80274;DHT22;69576;51.902;-8.462;2023-08-06T06:33:35;16.70;67.70
80274;DHT22;69576;51.902;-8.462;2023-08-06T06:36:03;16.70;67.70
80274;DHT22;69576;51.902;-8.462;2023-08-06T06:38:29;16.70;67.70
80274;DHT22;69576;51.902;-8.462;2023-08-06T06:40:56;16.70;67.70
80274;DHT22;69576;51.902;-8.462;2023-08-06T06:43:22;16.70;67.70
80274;DHT22;69576;51.902;-8.462;2023-08-06T06:45:53;16.80;67.60
80274;DHT22;69576;51.902;-8.462;2023-08-06T06:48:19;16.80;67.70
80274;DHT22;69576;51.902;-8.462;2023-08-06T06:50:48;16.80;67.80
80274;DHT22;69576;51.902;-8.462;2023-08-06T06:53:16;16.80;67.80
80274;DHT22;69576;51.902;-8.462;2023-08-06T06:55:42;16.80;67.80
80274;DHT22;69576;51.902;-8.462;2023-08-06T06:58:08;16.90;68.00
80274;DHT22;69576;51.902;-8.462;2023-08-06T07:00:39;16.90;67.90
80274;DHT22;69576;51.902;-8.462;2023-08-06T07:03:05;16.90;68.00
80274;DHT22;69576;51.902;-8.462;2023-08-06T07:05:30;16.90;67.90
80274;DHT22;69576;51.902;-8.462;2023-08-06T07:07:56;17.00;68.30
80274;DHT22;69576;51.902;-8.462;2023-08-06T07:10:22;17.00;68.60
80274;DHT22;69576;51.902;-8.462;2023-08-06T07:12:49;17.00;69.30
80274;DHT22;69576;51.902;-8.462;2023-08-06T07:15:15;17.00;69.40
80274;DHT22;69576;51.902;-8.462;2023-08-06T07:17:43;17.00;69.50
80274;DHT22;69576;51.902;-8.462;2023-08-06T07:20:09;17.10;69.80
80274;DHT22;69576;51.902;-8.462;2023-08-06T07:22:35;17.20;70.10
80274;DHT22;69576;51.902;-8.462;2023-08-06T07:25:01;17.20;70.20
80274;DHT22;69576;51.902;-8.462;2023-08-06T07:27:29;17.20;70.40
80274;DHT22;69576;51.902;-8.462;2023-08-06T07:29:58;17.20;70.40
80274;DHT22;69576;51.902;-8.462;2023-08-06T07:32:24;17.20;70.50
80274;DHT22;69576;51.902;-8.462;2023-08-06T07:34:55;17.20;70.80
80274;DHT22;69576;51.902;-8.462;2023-08-06T07:37:22;17.20;70.90
80274;DHT22;69576;51.902;-8.462;2023-08-06T07:39:51;17.30;71.00
80274;DHT22;69576;51.902;-8.462;2023-08-06T07:42:17;17.30;71.10
80274;DHT22;69576;51.902;-8.462;2023-08-06T07:44:53;17.30;71.10
80274;DHT22;69576;51.902;-8.462;2023-08-06T07:47:20;17.40;71.30
80274;DHT22;69576;51.902;-8.462;2023-08-06T07:49:48;17.40;71.40
80274;DHT22;69576;51.902;-8.462;2023-08-06T07:52:14;17.40;71.50
80274;DHT22;69576;51.902;-8.462;2023-08-06T07:54:40;17.40;71.40
80274;DHT22;69576;51.902;-8.462;2023-08-06T07:57:06;17.50;71.50
80274;DHT22;69576;51.902;-8.462;2023-08-06T07:59:32;17.50;72.10
80274;DHT22;69576;51.902;-8.462;2023-08-06T08:01:58;17.50;72.10
80274;DHT22;69576;51.902;-8.462;2023-08-06T08:04:24;17.60;72.30
80274;DHT22;69576;51.902;-8.462;2023-08-06T08:06:50;17.70;72.20
80274;DHT22;69576;51.902;-8.462;2023-08-06T08:09:15;17.80;71.80
80274;DHT22;69576;51.902;-8.462;2023-08-06T08:11:46;17.80;71.40
80274;DHT22;69576;51.902;-8.462;2023-08-06T08:14:12;17.80;71.90
80274;DHT22;69576;51.902;-8.462;2023-08-06T08:16:38;17.90;71.70
80274;DHT22;69576;51.902;-8.462;2023-08-06T08:19:04;17.90;71.80
80274;DHT22;69576;51.902;-8.462;2023-08-06T08:21:32;18.00;71.10
80274;DHT22;69576;51.902;-8.462;2023-08-06T08:24:00;18.00;71.50
80274;DHT22;69576;51.902;-8.462;2023-08-06T08:26:26;18.00;71.30
80274;DHT22;69576;51.902;-8.462;2023-08-06T08:28:57;18.00;71.40
80274;DHT22;69576;51.902;-8.462;2023-08-06T08:31:25;18.00;71.80
80274;DHT22;69576;51.902;-8.462;2023-08-06T08:33:51;18.00;71.40
80274;DHT22;69576;51.902;-8.462;2023-08-06T08:36:17;18.00;71.40
80274;DHT22;69576;51.902;-8.462;2023-08-06T08:38:45;18.10;71.50
80274;DHT22;69576;51.902;-8.462;2023-08-06T08:41:11;18.10;70.70
80274;DHT22;69576;51.902;-8.462;2023-08-06T08:43:37;18.20;70.30
80274;DHT22;69576;51.902;-8.462;2023-08-06T08:46:04;18.30;69.90
80274;DHT22;69576;51.902;-8.462;2023-08-06T08:48:31;18.40;70.10
80274;DHT22;69576;51.902;-8.462;2023-08-06T08:50:57;18.40;69.50
80274;DHT22;69576;51.902;-8.462;2023-08-06T08:53:23;18.50;69.20
80274;DHT22;69576;51.902;-8.462;2023-08-06T08:55:50;18.60;69.00
80274;DHT22;69576;51.902;-8.462;2023-08-06T08:58:21;18.70;68.90
80274;DHT22;69576;51.902;-8.462;2023-08-06T09:00:49;18.80;68.70
80274;DHT22;69576;51.902;-8.462;2023-08-06T09:03:16;18.80;68.50
80274;DHT22;69576;51.902;-8.462;2023-08-06T09:05:51;18.80;68.30
80274;DHT22;69576;51.902;-8.462;2023-08-06T09:08:23;18.90;68.60
80274;DHT22;69576;51.902;-8.462;2023-08-06T09:10:50;19.00;68.20
80274;DHT22;69576;51.902;-8.462;2023-08-06T09:13:17;19.00;68.10
80274;DHT22;69576;51.902;-8.462;2023-08-06T09:15:46;19.20;67.90
80274;DHT22;69576;51.902;-8.462;2023-08-06T09:18:25;19.40;67.10
80274;DHT22;69576;51.902;-8.462;2023-08-06T09:20:52;19.60;66.30
80274;DHT22;69576;51.902;-8.462;2023-08-06T09:23:18;19.90;65.70
80274;DHT22;69576;51.902;-8.462;2023-08-06T09:25:46;20.30;65.00
80274;DHT22;69576;51.902;-8.462;2023-08-06T09:28:12;20.50;64.30
80274;DHT22;69576;51.902;-8.462;2023-08-06T09:30:38;20.50;64.20
80274;DHT22;69576;51.902;-8.462;2023-08-06T09:33:08;20.70;64.20
80274;DHT22;69576;51.902;-8.462;2023-08-06T09:35:39;21.20;63.30
80274;DHT22;69576;51.902;-8.462;2023-08-06T09:38:06;21.50;62.70
80274;DHT22;69576;51.902;-8.462;2023-08-06T09:40:35;21.50;62.20
80274;DHT22;69576;51.902;-8.462;2023-08-06T09:43:01;21.70;61.60
80274;DHT22;69576;51.902;-8.462;2023-08-06T09:45:31;21.70;61.10
80274;DHT22;69576;51.902;-8.462;2023-08-06T09:47:58;21.50;60.50
80274;DHT22;69576;51.902;-8.462;2023-08-06T09:50:29;21.50;61.00
80274;DHT22;69576;51.902;-8.462;2023-08-06T09:53:02;21.50;60.80
80274;DHT22;69576;51.902;-8.462;2023-08-06T09:55:29;21.30;60.70
80274;DHT22;69576;51.902;-8.462;2023-08-06T09:57:58;21.00;60.90
80274;DHT22;69576;51.902;-8.462;2023-08-06T10:00:27;20.70;61.60
80274;DHT22;69576;51.902;-8.462;2023-08-06T10:02:54;20.50;62.20
80274;DHT22;69576;51.902;-8.462;2023-08-06T10:05:23;20.30;62.60
80274;DHT22;69576;51.902;-8.462;2023-08-06T10:07:52;20.10;62.90
80274;DHT22;69576;51.902;-8.462;2023-08-06T10:10:18;20.00;63.20
80274;DHT22;69576;51.902;-8.462;2023-08-06T10:12:50;19.80;63.50
80274;DHT22;69576;51.902;-8.462;2023-08-06T10:15:21;19.80;63.70
80274;DHT22;69576;51.902;-8.462;2023-08-06T10:17:47;19.70;63.80
80274;DHT22;69576;51.902;-8.462;2023-08-06T10:20:15;19.70;64.10
80274;DHT22;69576;51.902;-8.462;2023-08-06T10:23:03;19.70;63.90
80274;DHT22;69576;51.902;-8.462;2023-08-06T10:25:33;19.70;63.90
80274;DHT22;69576;51.902;-8.462;2023-08-06T10:27:59;19.90;64.00
80274;DHT22;69576;51.902;-8.462;2023-08-06T10:30:33;20.00;64.10
80274;DHT22;69576;51.902;-8.462;2023-08-06T10:33:05;20.20;63.80
80274;DHT22;69576;51.902;-8.462;2023-08-06T10:35:35;20.40;63.80
80274;DHT22;69576;51.902;-8.462;2023-08-06T10:38:05;20.50;63.70
80274;DHT22;69576;51.902;-8.462;2023-08-06T10:40:33;20.60;63.20
80274;DHT22;69576;51.902;-8.462;2023-08-06T10:43:02;20.60;63.20
80274;DHT22;69576;51.902;-8.462;2023-08-06T10:45:28;20.50;63.30
80274;DHT22;69576;51.902;-8.462;2023-08-06T10:47:56;20.50;63.00
80274;DHT22;69576;51.902;-8.462;2023-08-06T10:50:25;20.30;62.80
80274;DHT22;69576;51.902;-8.462;2023-08-06T10:52:52;20.30;63.20
80274;DHT22;69576;51.902;-8.462;2023-08-06T10:55:28;20.30;63.00
80274;DHT22;69576;51.902;-8.462;2023-08-06T10:57:55;20.30;63.00
80274;DHT22;69576;51.902;-8.462;2023-08-06T11:00:22;20.20;62.90
80274;DHT22;69576;51.902;-8.462;2023-08-06T11:02:53;20.30;63.10
80274;DHT22;69576;51.902;-8.462;2023-08-06T11:05:20;20.20;63.00
80274;DHT22;69576;51.902;-8.462;2023-08-06T11:07:46;20.10;62.50
80274;DHT22;69576;51.902;-8.462;2023-08-06T11:10:14;20.10;63.00
80274;DHT22;69576;51.902;-8.462;2023-08-06T11:12:40;20.20;63.00
80274;DHT22;69576;51.902;-8.462;2023-08-06T11:15:06;20.20;62.90
80274;DHT22;69576;51.902;-8.462;2023-08-06T11:17:33;20.10;62.70
80274;DHT22;69576;51.902;-8.462;2023-08-06T11:20:00;20.00;62.20
80274;DHT22;69576;51.902;-8.462;2023-08-06T11:22:27;20.00;62.50
80274;DHT22;69576;51.902;-8.462;2023-08-06T11:24:55;20.00;62.60
80274;DHT22;69576;51.902;-8.462;2023-08-06T11:27:21;19.90;62.60
80274;DHT22;69576;51.902;-8.462;2023-08-06T11:29:49;19.90;62.40
80274;DHT22;69576;51.902;-8.462;2023-08-06T11:32:17;19.90;62.70
80274;DHT22;69576;51.902;-8.462;2023-08-06T11:34:43;19.90;62.90
80274;DHT22;69576;51.902;-8.462;2023-08-06T11:37:14;19.90;62.90
80274;DHT22;69576;51.902;-8.462;2023-08-06T11:39:46;20.00;62.90
80274;DHT22;69576;51.902;-8.462;2023-08-06T11:42:14;20.00;62.40
80274;DHT22;69576;51.902;-8.462;2023-08-06T11:44:40;20.00;62.10
80274;DHT22;69576;51.902;-8.462;2023-08-06T11:47:13;20.00;62.20
80274;DHT22;69576;51.902;-8.462;2023-08-06T11:49:40;20.10;61.60
80274;DHT22;69576;51.902;-8.462;2023-08-06T11:52:12;20.10;62.20
80274;DHT22;69576;51.902;-8.462;2023-08-06T11:54:40;20.10;62.40
80274;DHT22;69576;51.902;-8.462;2023-08-06T11:57:06;20.10;62.00
80274;DHT22;69576;51.902;-8.462;2023-08-06T11:59:32;20.20;62.10
80274;DHT22;69576;51.902;-8.462;2023-08-06T12:02:01;20.30;62.20
80274;DHT22;69576;51.902;-8.462;2023-08-06T12:04:27;20.30;61.40
80274;DHT22;69576;51.902;-8.462;2023-08-06T12:06:55;20.30;60.70
80274;DHT22;69576;51.902;-8.462;2023-08-06T12:09:21;20.30;61.00
80274;DHT22;69576;51.902;-8.462;2023-08-06T12:11:46;20.30;61.50
80274;DHT22;69576;51.902;-8.462;2023-08-06T12:14:14;20.30;61.40
80274;DHT22;69576;51.902;-8.462;2023-08-06T12:16:40;20.40;61.50
80274;DHT22;69576;51.902;-8.462;2023-08-06T12:19:08;20.30;60.80
80274;DHT22;69576;51.902;-8.462;2023-08-06T12:21:34;20.30;60.80
80274;DHT22;69576;51.902;-8.462;2023-08-06T12:24:02;20.30;61.30
80274;DHT22;69576;51.902;-8.462;2023-08-06T12:26:31;20.30;61.00
80274;DHT22;69576;51.902;-8.462;2023-08-06T12:28:57;20.30;60.80
80274;DHT22;69576;51.902;-8.462;2023-08-06T12:31:25;20.30;60.30
80274;DHT22;69576;51.902;-8.462;2023-08-06T12:33:53;20.30;60.20
80274;DHT22;69576;51.902;-8.462;2023-08-06T12:36:21;20.20;60.40
80274;DHT22;69576;51.902;-8.462;2023-08-06T12:38:47;20.20;60.30
80274;DHT22;69576;51.902;-8.462;2023-08-06T12:41:15;20.20;60.50
80274;DHT22;69576;51.902;-8.462;2023-08-06T12:43:41;20.30;61.00
80274;DHT22;69576;51.902;-8.462;2023-08-06T12:46:07;20.20;60.90
80274;DHT22;69576;51.902;-8.462;2023-08-06T12:48:32;20.20;60.40
80274;DHT22;69576;51.902;-8.462;2023-08-06T12:51:00;20.20;60.40
80274;DHT22;69576;51.902;-8.462;2023-08-06T12:53:26;20.20;60.30
80274;DHT22;69576;51.902;-8.462;2023-08-06T12:55:52;20.20;60.70
80274;DHT22;69576;51.902;-8.462;2023-08-06T12:58:18;20.30;60.90
80274;DHT22;69576;51.902;-8.462;2023-08-06T13:00:43;20.30;60.70
80274;DHT22;69576;51.902;-8.462;2023-08-06T13:03:09;20.30;60.60
80274;DHT22;69576;51.902;-8.462;2023-08-06T13:05:35;20.30;60.60
80274;DHT22;69576;51.902;-8.462;2023-08-06T13:08:01;20.30;60.90
80274;DHT22;69576;51.902;-8.462;2023-08-06T13:10:29;20.30;60.90
80274;DHT22;69576;51.902;-8.462;2023-08-06T13:12:56;20.30;61.00
80274;DHT22;69576;51.902;-8.462;2023-08-06T13:15:22;20.30;60.90
80274;DHT22;69576;51.902;-8.462;2023-08-06T13:17:48;20.30;60.80
80274;DHT22;69576;51.902;-8.462;2023-08-06T13:20:14;20.30;61.10
80274;DHT22;69576;51.902;-8.462;2023-08-06T13:22:39;20.30;61.20
80274;DHT22;69576;51.902;-8.462;2023-08-06T13:25:05;20.30;61.00
80274;DHT22;69576;51.902;-8.462;2023-08-06T13:27:34;20.20;60.30
80274;DHT22;69576;51.902;-8.462;2023-08-06T13:30:00;20.30;60.50
80274;DHT22;69576;51.902;-8.462;2023-08-06T13:32:27;20.20;60.50
80274;DHT22;69576;51.902;-8.462;2023-08-06T13:34:53;20.20;60.80
80274;DHT22;69576;51.902;-8.462;2023-08-06T13:37:18;20.20;60.60
80274;DHT22;69576;51.902;-8.462;2023-08-06T13:39:46;20.10;60.70
80274;DHT22;69576;51.902;-8.462;2023-08-06T13:42:12;20.10;60.50
80274;DHT22;69576;51.902;-8.462;2023-08-06T13:44:38;20.10;60.80
80274;DHT22;69576;51.902;-8.462;2023-08-06T13:47:03;20.10;60.90
80274;DHT22;69576;51.902;-8.462;2023-08-06T13:49:29;20.10;60.70
80274;DHT22;69576;51.902;-8.462;2023-08-06T13:51:55;20.10;60.90
80274;DHT22;69576;51.902;-8.462;2023-08-06T13:54:23;20.10;61.20
80274;DHT22;69576;51.902;-8.462;2023-08-06T13:56:49;20.10;61.30
80274;DHT22;69576;51.902;-8.462;2023-08-06T13:59:15;20.10;61.20
80274;DHT22;69576;51.902;-8.462;2023-08-06T14:01:45;20.10;61.00
80274;DHT22;69576;51.902;-8.462;2023-08-06T14:04:13;20.10;61.20
80274;DHT22;69576;51.902;-8.462;2023-08-06T14:06:41;20.00;61.20
80274;DHT22;69576;51.902;-8.462;2023-08-06T14:09:09;20.00;61.10
80274;DHT22;69576;51.902;-8.462;2023-08-06T14:11:37;20.00;61.00
80274;DHT22;69576;51.902;-8.462;2023-08-06T14:14:05;20.00;61.10
80274;DHT22;69576;51.902;-8.462;2023-08-06T14:16:33;20.00;60.90
80274;DHT22;69576;51.902;-8.462;2023-08-06T14:19:01;20.00;61.50
80274;DHT22;69576;51.902;-8.462;2023-08-06T14:21:26;20.00;61.50
80274;DHT22;69576;51.902;-8.462;2023-08-06T14:23:52;20.00;61.50
80274;DHT22;69576;51.902;-8.462;2023-08-06T14:26:18;20.00;61.60
80274;DHT22;69576;51.902;-8.462;2023-08-06T14:28:44;20.00;61.90
80274;DHT22;69576;51.902;-8.462;2023-08-06T14:31:09;20.00;61.90
80274;DHT22;69576;51.902;-8.462;2023-08-06T14:33:35;20.00;62.10
80274;DHT22;69576;51.902;-8.462;2023-08-06T14:36:01;20.00;62.10
80274;DHT22;69576;51.902;-8.462;2023-08-06T14:38:27;20.00;61.90
80274;DHT22;69576;51.902;-8.462;2023-08-06T14:40:55;20.00;62.00
80274;DHT22;69576;51.902;-8.462;2023-08-06T14:43:24;20.00;61.60
80274;DHT22;69576;51.902;-8.462;2023-08-06T14:45:50;20.00;62.00
80274;DHT22;69576;51.902;-8.462;2023-08-06T14:48:15;19.90;61.90
80274;DHT22;69576;51.902;-8.462;2023-08-06T14:50:44;20.00;61.70
80274;DHT22;69576;51.902;-8.462;2023-08-06T14:53:09;20.00;62.00
80274;DHT22;69576;51.902;-8.462;2023-08-06T14:55:39;20.00;61.80
80274;DHT22;69576;51.902;-8.462;2023-08-06T14:58:07;19.90;61.80
80274;DHT22;69576;51.902;-8.462;2023-08-06T15:00:33;19.90;62.00
80274;DHT22;69576;51.902;-8.462;2023-08-06T15:02:58;20.00;61.80
80274;DHT22;69576;51.902;-8.462;2023-08-06T15:05:26;20.00;62.00
80274;DHT22;69576;51.902;-8.462;2023-08-06T15:07:55;20.00;62.00
80274;DHT22;69576;51.902;-8.462;2023-08-06T15:10:20;20.00;61.60
80274;DHT22;69576;51.902;-8.462;2023-08-06T15:12:47;19.90;62.00
80274;DHT22;69576;51.902;-8.462;2023-08-06T15:15:13;19.90;62.00
80274;DHT22;69576;51.902;-8.462;2023-08-06T15:17:42;19.90;61.80
80274;DHT22;69576;51.902;-8.462;2023-08-06T15:20:08;19.90;62.20
80274;DHT22;69576;51.902;-8.462;2023-08-06T15:22:34;19.90;62.20